createdAt,value
2019-02-24T00:00:38.105Z,47.54
2019-02-24T00:03:04.836Z,47.34
2019-02-24T00:05:31.575Z,47.88
2019-02-24T00:07:58.376Z,47.88
2019-02-24T00:10:25.100Z,47.44
2019-02-24T00:12:51.853Z,47.38
2019-02-24T00:15:21.471Z,47.29
2019-02-24T00:17:48.335Z,47.33
2019-02-24T00:20:15.535Z,46.83
2019-02-24T00:22:42.288Z,46.29
2019-02-24T00:25:09.035Z,46.29
2019-02-24T00:27:35.821Z,45.50
2019-02-24T00:30:02.709Z,45.50
2019-02-24T00:32:29.463Z,45.42
2019-02-24T00:34:56.213Z,45.27
2019-02-24T00:37:22.955Z,44.96
2019-02-24T00:39:49.695Z,44.66
2019-02-24T00:42:16.468Z,44.55
2019-02-24T00:44:43.302Z,44.55
2019-02-24T00:47:10.481Z,44.66
2019-02-24T00:49:38.151Z,44.60
2019-02-24T00:52:04.886Z,44.44
2019-02-24T00:54:31.622Z,44.45
2019-02-24T00:56:58.331Z,44.27
2019-02-24T00:59:25.462Z,44.27
2019-02-24T01:01:52.321Z,44.37
2019-02-24T01:04:19.049Z,44.07
2019-02-24T01:06:45.795Z,44.25
2019-02-24T01:09:14.769Z,44.25
2019-02-24T01:11:44.752Z,44.73
2019-02-24T01:14:11.501Z,44.46
2019-02-24T01:16:38.344Z,44.91
2019-02-24T01:19:05.082Z,44.75
2019-02-24T01:21:36.061Z,44.95
2019-02-24T01:24:02.797Z,44.86
2019-02-24T01:26:29.519Z,44.86
2019-02-24T01:28:56.295Z,45.09
2019-02-24T01:31:23.032Z,44.56
2019-02-24T01:33:49.801Z,44.29
2019-02-24T01:36:16.572Z,43.99
2019-02-24T01:38:43.337Z,43.75
2019-02-24T01:41:10.218Z,43.75
2019-02-24T01:43:36.953Z,44.16
2019-02-24T01:46:03.795Z,44.20
2019-02-24T01:48:30.516Z,44.01
2019-02-24T01:50:57.317Z,44.14
2019-02-24T01:53:24.017Z,44.79
2019-02-24T01:55:50.745Z,45.17
2019-02-24T01:58:17.496Z,45.17
2019-02-24T02:00:44.334Z,44.89
2019-02-24T02:03:11.067Z,45.27
2019-02-24T02:05:37.812Z,45.38
2019-02-24T02:08:04.538Z,44.85
2019-02-24T02:10:31.262Z,45.32
2019-02-24T02:12:57.985Z,45.75
2019-02-24T02:15:24.829Z,45.64
2019-02-24T02:17:51.522Z,45.65
2019-02-24T02:20:18.276Z,45.72
2019-02-24T02:22:45.328Z,46.27
2019-02-24T02:25:12.074Z,46.27
2019-02-24T02:27:39.114Z,46.36
2019-02-24T02:30:07.273Z,46.42
2019-02-24T02:32:35.951Z,46.45
2019-02-24T02:35:03.710Z,46.18
2019-02-24T02:37:30.438Z,46.44
2019-02-24T02:39:57.143Z,46.80
2019-02-24T02:42:23.870Z,46.80
2019-02-24T02:44:50.612Z,46.00
2019-02-24T02:47:17.345Z,46.00
2019-02-24T02:49:44.099Z,46.09
2019-02-24T02:52:10.843Z,46.63
2019-02-24T02:54:39.965Z,47.12
2019-02-24T02:57:06.677Z,47.20
2019-02-24T02:59:34.799Z,46.93
2019-02-24T03:02:01.551Z,46.61
2019-02-24T03:04:28.258Z,46.66
2019-02-24T03:07:14.636Z,46.75
2019-02-24T03:09:41.406Z,47.33
2019-02-24T03:12:08.107Z,47.95
2019-02-24T03:14:34.836Z,48.01
2019-02-24T03:17:01.628Z,48.30
2019-02-24T03:19:28.382Z,48.63
2019-02-24T03:21:55.165Z,48.86
2019-02-24T03:24:21.922Z,48.99
2019-02-24T03:26:48.657Z,48.90
2019-02-24T03:29:15.390Z,48.60
2019-02-24T03:31:44.944Z,48.52
2019-02-24T03:34:11.675Z,48.46
2019-02-24T03:36:38.408Z,48.36
2019-02-24T03:39:05.841Z,48.74
2019-02-24T03:41:32.556Z,48.97
2019-02-24T03:43:59.328Z,49.12
2019-02-24T03:46:26.099Z,48.41
2019-02-24T03:48:53.347Z,48.55
2019-02-24T03:51:20.102Z,48.96
2019-02-24T03:53:49.645Z,49.21
2019-02-24T03:56:16.391Z,49.02
2019-02-24T03:58:43.191Z,49.33
2019-02-24T04:01:09.912Z,49.38
2019-02-24T04:03:36.973Z,49.30
2019-02-24T04:06:04.424Z,48.94
2019-02-24T04:08:31.369Z,49.25
2019-02-24T04:10:58.066Z,49.14
2019-02-24T04:13:24.833Z,49.55
2019-02-24T04:15:51.798Z,49.52
2019-02-24T04:18:18.661Z,49.03
2019-02-24T04:20:52.860Z,48.56
2019-02-24T04:23:19.681Z,47.83
2019-02-24T04:25:46.402Z,47.91
2019-02-24T04:28:13.153Z,47.05
2019-02-24T04:30:39.918Z,46.69
2019-02-24T04:33:06.959Z,46.74
2019-02-24T04:35:35.226Z,46.39
2019-02-24T04:38:01.907Z,46.08
2019-02-24T04:40:28.629Z,45.43
2019-02-24T04:42:55.622Z,45.02
2019-02-24T04:45:22.318Z,45.29
2019-02-24T04:47:49.025Z,45.40
2019-02-24T04:50:15.719Z,45.44
2019-02-24T04:52:42.454Z,45.52
2019-02-24T04:55:09.178Z,45.37
2019-02-24T04:57:35.903Z,45.56
2019-02-24T05:00:02.790Z,46.51
2019-02-24T05:02:29.545Z,46.94
2019-02-24T05:04:56.308Z,47.14
2019-02-24T05:07:23.048Z,46.97
2019-02-24T05:09:49.813Z,46.99
2019-02-24T05:12:16.548Z,46.58
2019-02-24T05:14:43.701Z,46.34
2019-02-24T05:17:12.704Z,46.25
2019-02-24T05:19:41.997Z,46.98
2019-02-24T05:22:10.367Z,47.75
2019-02-24T05:24:37.221Z,47.87
2019-02-24T05:27:04.063Z,48.12
2019-02-24T05:29:30.802Z,48.24
2019-02-24T05:31:57.543Z,47.80
2019-02-24T05:34:24.267Z,47.43
2019-02-24T05:36:51.031Z,48.26
2019-02-24T05:39:17.996Z,48.53
2019-02-24T05:41:44.732Z,48.19
2019-02-24T05:44:11.444Z,48.47
2019-02-24T05:46:38.193Z,48.60
2019-02-24T05:49:04.947Z,48.88
2019-02-24T05:51:34.565Z,49.86
2019-02-24T05:54:03.068Z,50.86
2019-02-24T05:56:29.791Z,50.90
2019-02-24T05:58:56.566Z,51.40
2019-02-24T06:01:23.299Z,51.94
2019-02-24T06:03:50.064Z,52.32
2019-02-24T06:06:16.781Z,52.40
2019-02-24T06:08:43.513Z,51.90
2019-02-24T06:11:10.244Z,51.44
2019-02-24T06:13:36.979Z,51.34
2019-02-24T06:16:03.718Z,51.46
2019-02-24T06:18:30.622Z,51.08
2019-02-24T06:20:57.350Z,50.66
2019-02-24T06:23:24.070Z,51.64
2019-02-24T06:25:50.820Z,51.96
2019-02-24T06:28:17.521Z,51.60
2019-02-24T06:30:44.926Z,51.59
2019-02-24T06:33:13.669Z,51.31
2019-02-24T06:35:40.605Z,51.24
2019-02-24T06:38:07.402Z,51.03
2019-02-24T06:40:38.242Z,50.76
2019-02-24T06:43:04.967Z,50.57
2019-02-24T06:45:31.679Z,50.28
2019-02-24T06:47:58.423Z,50.22
2019-02-24T06:50:35.136Z,50.32
2019-02-24T06:52:56.836Z,50.98
2019-02-24T06:55:23.571Z,50.94
2019-02-24T06:57:50.430Z,51.19
2019-02-24T07:00:17.182Z,51.59
2019-02-24T07:02:44.041Z,52.02
2019-02-24T07:05:10.825Z,52.20
2019-02-24T07:07:37.552Z,52.22
2019-02-24T07:10:05.289Z,52.15
2019-02-24T07:12:32.128Z,51.32
2019-02-24T07:14:58.883Z,50.92
2019-02-24T07:17:25.589Z,50.19
2019-02-24T07:19:52.339Z,50.37
2019-02-24T07:22:19.111Z,50.49
2019-02-24T07:24:47.614Z,50.83
2019-02-24T07:27:14.637Z,51.28
2019-02-24T07:29:41.516Z,51.20
2019-02-24T07:32:08.281Z,50.76
2019-02-24T07:34:35.444Z,50.21
2019-02-24T07:37:02.259Z,49.86
2019-02-24T07:39:29.012Z,49.63
2019-02-24T07:41:56.363Z,49.34
2019-02-24T07:44:23.109Z,49.47
2019-02-24T07:46:52.665Z,48.72
2019-02-24T07:49:19.420Z,48.55
2019-02-24T07:51:48.998Z,48.48
2019-02-24T07:54:15.746Z,48.24
2019-02-24T07:56:42.604Z,47.82
2019-02-24T07:59:09.391Z,47.35
2019-02-24T08:01:38.697Z,47.17
2019-02-24T08:04:05.550Z,46.84
2019-02-24T08:06:32.332Z,46.84
2019-02-24T08:08:59.076Z,46.28
2019-02-24T08:11:25.806Z,46.18
2019-02-24T08:13:52.567Z,45.96
2019-02-24T08:16:19.335Z,45.16
2019-02-24T08:18:49.553Z,44.42
2019-02-24T08:21:15.269Z,42.79
2019-02-24T08:23:42.418Z,42.79
2019-02-24T08:26:09.831Z,42.34
2019-02-24T08:28:37.181Z,42.00
2019-02-24T08:31:04.000Z,41.42
2019-02-24T08:33:34.785Z,40.71
2019-02-24T08:36:01.507Z,40.71
2019-02-24T08:38:28.299Z,39.58
2019-02-24T08:40:55.192Z,39.58
2019-02-24T08:43:21.993Z,39.71
2019-02-24T08:45:48.719Z,38.64
2019-02-24T08:48:15.448Z,38.64
2019-02-24T08:50:42.660Z,38.32
2019-02-24T08:53:09.341Z,37.45
2019-02-24T08:55:36.114Z,36.49
2019-02-24T08:58:02.877Z,36.86
2019-02-24T09:00:29.717Z,36.40
2019-02-24T09:02:56.458Z,35.40
2019-02-24T09:05:23.207Z,35.40
2019-02-24T09:07:49.988Z,34.77
2019-02-24T09:10:16.724Z,33.67
2019-02-24T09:12:43.574Z,33.16
2019-02-24T09:15:10.415Z,34.22
2019-02-24T09:17:37.150Z,34.22
2019-02-24T09:20:04.233Z,33.96
2019-02-24T09:22:31.685Z,32.31
2019-02-24T09:24:58.443Z,30.37
2019-02-24T09:27:25.180Z,30.63
2019-02-24T09:29:52.705Z,30.63
2019-02-24T09:32:19.527Z,30.22
2019-02-24T09:34:46.257Z,29.77
2019-02-24T09:37:13.004Z,28.02
2019-02-24T09:39:39.749Z,28.02
2019-02-24T09:42:08.883Z,28.28
2019-02-24T09:44:35.616Z,29.11
2019-02-24T09:47:02.352Z,27.25
2019-02-24T09:49:29.084Z,26.80
2019-02-24T09:51:56.274Z,26.24
2019-02-24T09:54:26.396Z,26.79
2019-02-24T09:56:53.657Z,24.53
2019-02-24T09:59:20.890Z,23.42
2019-02-24T10:01:49.645Z,23.68
2019-02-24T10:04:16.357Z,24.09
2019-02-24T10:06:43.118Z,22.88
2019-02-24T10:09:09.912Z,22.44
2019-02-24T10:11:36.710Z,22.75
2019-02-24T10:14:03.506Z,23.11
2019-02-24T10:16:30.428Z,22.09
2019-02-24T10:18:57.195Z,23.93
2019-02-24T10:21:23.931Z,22.41
2019-02-24T10:23:50.665Z,21.74
2019-02-24T10:26:17.536Z,18.95
2019-02-24T10:28:44.262Z,18.24
2019-02-24T10:31:19.442Z,19.17
2019-02-24T10:33:41.112Z,17.94
2019-02-24T10:36:08.942Z,16.73
2019-02-24T10:38:36.078Z,18.08
2019-02-24T10:41:03.022Z,17.06
2019-02-24T10:43:29.807Z,15.73
2019-02-24T10:45:56.520Z,16.70
2019-02-24T10:48:23.307Z,17.06
2019-02-24T10:50:50.049Z,17.14
2019-02-24T10:53:16.830Z,16.02
2019-02-24T10:55:44.878Z,15.30
2019-02-24T10:58:11.771Z,16.55
2019-02-24T11:00:38.481Z,16.85
2019-02-24T11:03:05.260Z,16.37
2019-02-24T11:05:32.018Z,15.40
2019-02-24T11:07:59.010Z,15.07
2019-02-24T11:10:26.189Z,14.71
2019-02-24T11:12:53.532Z,14.82
2019-02-24T11:15:24.689Z,15.49
2019-02-24T11:17:51.480Z,15.77
2019-02-24T11:20:18.817Z,16.25
2019-02-24T11:22:45.700Z,16.20
2019-02-24T11:25:12.484Z,16.75
2019-02-24T11:27:39.270Z,15.98
2019-02-24T11:30:08.718Z,16.33
2019-02-24T11:32:35.608Z,16.51
2019-02-24T11:35:02.434Z,18.05
2019-02-24T11:37:29.394Z,19.12
2019-02-24T11:39:56.682Z,19.63
2019-02-24T11:42:24.600Z,20.82
2019-02-24T11:44:51.603Z,21.29
2019-02-24T11:47:29.781Z,21.97
2019-02-24T11:49:57.602Z,21.80
2019-02-24T11:52:26.718Z,22.07
2019-02-24T11:54:53.560Z,22.44
2019-02-24T11:57:22.135Z,22.39
2019-02-24T11:59:51.125Z,22.13
2019-02-24T12:02:18.128Z,22.26
2019-02-24T12:04:46.783Z,22.88
2019-02-24T12:07:13.834Z,22.69
2019-02-24T12:09:40.692Z,23.06
2019-02-24T12:12:07.454Z,23.15
2019-02-24T12:14:41.500Z,23.09
2019-02-24T12:17:10.663Z,23.69
2019-02-24T12:19:37.938Z,23.71
2019-02-24T12:22:04.695Z,23.78
2019-02-24T12:24:31.434Z,23.47
2019-02-24T12:26:58.292Z,23.70
2019-02-24T12:29:25.329Z,23.27
2019-02-24T12:31:56.578Z,23.40
2019-02-24T12:34:20.645Z,23.33
2019-02-24T12:36:47.390Z,23.16
2019-02-24T12:39:14.240Z,23.60
2019-02-24T12:41:42.480Z,23.15
2019-02-24T12:44:09.273Z,23.19
2019-02-24T12:46:36.078Z,22.93
2019-02-24T12:49:02.836Z,23.29
2019-02-24T12:51:29.692Z,23.31
2019-02-24T12:53:56.409Z,22.83
2019-02-24T12:56:23.109Z,23.00
2019-02-24T12:58:49.814Z,22.67
2019-02-24T13:01:17.302Z,22.87
2019-02-24T13:03:46.854Z,22.69
2019-02-24T13:06:13.638Z,22.59
2019-02-24T13:08:40.684Z,22.30
2019-02-24T13:11:09.436Z,22.33
2019-02-24T13:13:36.234Z,22.12
2019-02-24T13:16:02.970Z,22.11
2019-02-24T13:18:29.758Z,22.34
2019-02-24T13:20:56.572Z,22.03
2019-02-24T13:23:23.311Z,21.71
2019-02-24T13:25:50.196Z,21.36
2019-02-24T13:28:16.944Z,21.28
2019-02-24T13:30:43.786Z,21.22
2019-02-24T13:33:10.509Z,20.84
2019-02-24T13:35:40.631Z,20.87
2019-02-24T13:38:07.552Z,21.00
2019-02-24T13:40:35.888Z,20.52
2019-02-24T13:43:02.607Z,20.31
2019-02-24T13:45:29.437Z,20.05
2019-02-24T13:47:56.170Z,20.28
2019-02-24T13:50:23.033Z,19.64
2019-02-24T13:52:49.741Z,19.41
2019-02-24T13:55:17.073Z,19.54
2019-02-24T13:57:43.817Z,19.73
2019-02-24T14:00:13.435Z,19.97
2019-02-24T14:02:40.404Z,19.91
2019-02-24T14:05:07.136Z,20.21
2019-02-24T14:07:33.897Z,20.04
2019-02-24T14:10:00.668Z,20.31
2019-02-24T14:12:27.379Z,20.17
2019-02-24T14:14:54.109Z,18.59
2019-02-24T14:17:20.859Z,19.07
2019-02-24T14:19:47.942Z,19.06
2019-02-24T14:22:14.669Z,18.42
2019-02-24T14:24:41.411Z,18.44
2019-02-24T14:27:08.132Z,18.66
2019-02-24T14:29:34.888Z,17.86
2019-02-24T14:32:01.673Z,18.14
2019-02-24T14:34:28.593Z,19.13
2019-02-24T14:36:55.439Z,18.31
2019-02-24T14:39:22.353Z,18.39
2019-02-24T14:41:52.157Z,18.79
2019-02-24T14:44:18.957Z,18.64
2019-02-24T14:46:48.913Z,19.20
2019-02-24T14:49:15.611Z,20.03
2019-02-24T14:51:42.437Z,19.82
2019-02-24T14:54:09.185Z,20.32
2019-02-24T14:56:35.910Z,20.79
2019-02-24T14:59:02.629Z,20.64
2019-02-24T15:01:29.356Z,20.94
2019-02-24T15:03:56.095Z,21.01
2019-02-24T15:06:22.818Z,20.93
2019-02-24T15:08:49.573Z,21.19
2019-02-24T15:11:18.449Z,21.40
2019-02-24T15:13:46.561Z,21.55
2019-02-24T15:16:16.247Z,21.66
2019-02-24T15:18:43.024Z,21.01
2019-02-24T15:21:10.294Z,20.88
2019-02-24T15:23:36.979Z,21.47
2019-02-24T15:26:03.926Z,21.50
2019-02-24T15:28:30.643Z,21.66
2019-02-24T15:30:57.517Z,20.90
2019-02-24T15:33:26.195Z,21.02
2019-02-24T15:35:52.877Z,21.14
2019-02-24T15:38:19.702Z,21.37
2019-02-24T15:40:46.617Z,21.84
2019-02-24T15:43:13.473Z,22.33
2019-02-24T15:45:40.232Z,22.68
2019-02-24T15:48:07.397Z,22.48
2019-02-24T15:50:34.117Z,22.46
2019-02-24T15:53:00.970Z,22.63
2019-02-24T15:55:45.305Z,23.19
2019-02-24T15:58:12.467Z,23.01
2019-02-24T16:00:40.927Z,23.05
2019-02-24T16:03:08.102Z,23.03
2019-02-24T16:05:35.300Z,22.86
2019-02-24T16:08:02.400Z,22.87
2019-02-24T16:10:29.169Z,23.06
2019-02-24T16:12:57.775Z,23.16
2019-02-24T16:15:24.527Z,23.41
2019-02-24T16:17:52.017Z,23.38
2019-02-24T16:20:22.962Z,23.28
2019-02-24T16:22:52.803Z,23.67
2019-02-24T16:25:20.451Z,23.44
2019-02-24T16:27:48.693Z,23.29
2019-02-24T16:30:15.549Z,23.60
2019-02-24T16:32:42.611Z,23.72
2019-02-24T16:35:11.160Z,23.46
2019-02-24T16:37:39.072Z,23.53
2019-02-24T16:40:10.225Z,23.81
2019-02-24T16:42:36.950Z,23.49
2019-02-24T16:45:03.865Z,23.84
2019-02-24T16:47:32.535Z,23.92
2019-02-24T16:49:59.250Z,24.01
2019-02-24T16:52:26.098Z,24.16
2019-02-24T16:54:53.026Z,25.08
2019-02-24T16:57:19.739Z,25.39
2019-02-24T16:59:46.449Z,25.66
2019-02-24T17:02:13.155Z,25.85
2019-02-24T17:04:40.253Z,25.93
2019-02-24T17:07:07.047Z,26.22
2019-02-24T17:09:33.872Z,26.42
2019-02-24T17:12:00.887Z,26.60
2019-02-24T17:14:27.595Z,26.75
2019-02-24T17:17:01.342Z,26.78
2019-02-24T17:19:23.321Z,27.01
2019-02-24T17:21:50.101Z,26.96
2019-02-24T17:24:16.824Z,27.01
2019-02-24T17:26:43.567Z,27.11
2019-02-24T17:29:10.355Z,27.20
2019-02-24T17:31:37.077Z,27.42
2019-02-24T17:34:04.292Z,27.60
2019-02-24T17:36:31.077Z,27.68
2019-02-24T17:38:58.087Z,27.56
2019-02-24T17:41:28.149Z,27.70
2019-02-24T17:43:56.287Z,27.98
2019-02-24T17:46:23.249Z,28.03
2019-02-24T17:48:50.033Z,28.13
2019-02-24T17:51:21.161Z,28.23
2019-02-24T17:53:45.495Z,28.27
2019-02-24T17:56:13.421Z,28.42
2019-02-24T17:58:40.493Z,28.54
2019-02-24T18:01:07.341Z,28.57
2019-02-24T18:03:39.551Z,28.94
2019-02-24T18:06:05.519Z,29.11
2019-02-24T18:08:32.236Z,29.17
2019-02-24T18:10:58.999Z,29.29
2019-02-24T18:13:25.916Z,29.32
2019-02-24T18:15:53.293Z,29.56
2019-02-24T18:18:20.046Z,29.68
2019-02-24T18:20:46.782Z,29.70
2019-02-24T18:23:13.962Z,29.82
2019-02-24T18:25:40.685Z,29.93
2019-02-24T18:28:07.389Z,29.92
2019-02-24T18:30:34.114Z,29.96
2019-02-24T18:33:00.844Z,30.28
2019-02-24T18:35:27.568Z,30.42
2019-02-24T18:37:55.470Z,30.13
2019-02-24T18:40:22.223Z,30.33
2019-02-24T18:42:59.326Z,30.51
2019-02-24T18:45:18.677Z,30.93
2019-02-24T18:47:49.839Z,31.32
2019-02-24T18:50:16.248Z,31.79
2019-02-24T18:52:42.986Z,32.21
2019-02-24T18:55:09.723Z,32.58
2019-02-24T18:57:38.138Z,33.24
2019-02-24T19:00:07.823Z,33.40
2019-02-24T19:02:34.578Z,33.60
2019-02-24T19:05:01.428Z,33.91
2019-02-24T19:07:28.325Z,33.87
2019-02-24T19:09:55.072Z,34.01
2019-02-24T19:12:21.754Z,34.26
2019-02-24T19:14:48.598Z,34.71
2019-02-24T19:17:17.742Z,35.11
2019-02-24T19:19:44.457Z,35.56
2019-02-24T19:22:11.602Z,35.97
2019-02-24T19:24:38.342Z,36.20
2019-02-24T19:27:05.072Z,36.61
2019-02-24T19:29:31.895Z,36.83
2019-02-24T19:31:58.592Z,37.02
2019-02-24T19:34:25.825Z,37.23
2019-02-24T19:36:52.563Z,37.39
2019-02-24T19:39:19.296Z,37.40
2019-02-24T19:41:46.345Z,37.65
2019-02-24T19:44:13.298Z,37.51
2019-02-24T19:46:40.112Z,37.75
2019-02-24T19:49:06.817Z,37.58
2019-02-24T19:51:33.575Z,37.60
2019-02-24T19:54:00.288Z,37.65
2019-02-24T19:56:27.616Z,37.77
2019-02-24T19:58:54.326Z,37.71
2019-02-24T20:01:21.079Z,37.90
2019-02-24T20:03:47.854Z,37.87
2019-02-24T20:06:14.577Z,38.04
2019-02-24T20:08:41.603Z,38.54
2019-02-24T20:11:08.398Z,38.72
2019-02-24T20:13:36.412Z,38.93
2019-02-24T20:16:03.130Z,39.24
2019-02-24T20:18:30.328Z,39.53
2019-02-24T20:20:57.104Z,39.51
2019-02-24T20:23:23.811Z,39.74
2019-02-24T20:25:50.860Z,39.71
2019-02-24T20:28:17.691Z,39.94
2019-02-24T20:30:44.422Z,40.19
2019-02-24T20:33:11.174Z,40.64
2019-02-24T20:35:37.914Z,40.78
2019-02-24T20:38:04.780Z,40.90
2019-02-24T20:40:31.618Z,41.42
2019-02-24T20:42:58.337Z,41.43
2019-02-24T20:45:25.097Z,41.61
2019-02-24T20:47:51.930Z,41.79
2019-02-24T20:50:18.889Z,41.51
2019-02-24T20:52:45.609Z,41.57
2019-02-24T20:55:12.359Z,41.62
2019-02-24T20:57:39.070Z,41.62
2019-02-24T21:00:10.591Z,42.02
2019-02-24T21:02:38.890Z,42.89
2019-02-24T21:05:05.922Z,43.04
2019-02-24T21:07:32.604Z,42.91
2019-02-24T21:09:59.356Z,42.75
2019-02-24T21:12:26.086Z,42.90
2019-02-24T21:14:52.830Z,43.08
2019-02-24T21:17:21.419Z,42.95
2019-02-24T21:19:48.279Z,42.99
2019-02-24T21:22:15.017Z,42.98
2019-02-24T21:24:47.291Z,43.15
2019-02-24T21:27:15.778Z,43.15
2019-02-24T21:29:43.140Z,43.31
2019-02-24T21:32:11.705Z,43.02
2019-02-24T21:34:40.880Z,43.02
2019-02-24T21:37:07.821Z,43.09
2019-02-24T21:39:34.732Z,43.14
2019-02-24T21:42:01.465Z,43.41
2019-02-24T21:44:28.590Z,43.65
2019-02-24T21:46:56.723Z,43.46
2019-02-24T21:49:23.674Z,43.44
2019-02-24T21:51:50.440Z,43.93
2019-02-24T21:54:17.174Z,44.09
2019-02-24T21:56:44.543Z,44.11
2019-02-24T21:59:11.307Z,44.07
2019-02-24T22:01:40.019Z,44.28
2019-02-24T22:04:06.763Z,44.41
2019-02-24T22:06:33.475Z,45.35
2019-02-24T22:09:00.265Z,44.97
2019-02-24T22:11:27.407Z,44.97
2019-02-24T22:13:54.154Z,45.15
2019-02-24T22:16:21.071Z,45.39
2019-02-24T22:18:47.846Z,45.37
2019-02-24T22:21:17.260Z,45.14
2019-02-24T22:23:43.950Z,45.14
2019-02-24T22:26:10.665Z,45.60
2019-02-24T22:28:37.393Z,45.78
2019-02-24T22:31:04.100Z,45.81
2019-02-24T22:33:30.840Z,45.71
2019-02-24T22:35:57.660Z,45.83
2019-02-24T22:38:24.548Z,45.35
2019-02-24T22:40:54.543Z,45.74
2019-02-24T22:43:21.659Z,45.74
2019-02-24T22:45:48.384Z,46.47
2019-02-24T22:48:15.215Z,46.36
2019-02-24T22:50:41.985Z,46.81
2019-02-24T22:53:08.773Z,47.83
2019-02-24T22:55:35.527Z,47.83
2019-02-24T22:58:02.370Z,47.06
2019-02-24T23:00:55.566Z,47.06
2019-02-24T23:03:23.611Z,46.16
2019-02-24T23:05:50.359Z,46.16
2019-02-24T23:08:17.135Z,46.19
2019-02-24T23:10:44.311Z,46.19
2019-02-24T23:13:11.508Z,46.71
2019-02-24T23:15:38.359Z,46.49
2019-02-24T23:18:05.109Z,47.61
2019-02-24T23:20:31.881Z,47.59
2019-02-24T23:23:01.629Z,48.14
2019-02-24T23:25:28.371Z,48.14
2019-02-24T23:27:55.544Z,47.96
2019-02-24T23:30:22.393Z,48.27
2019-02-24T23:32:49.189Z,48.23
2019-02-24T23:35:16.005Z,48.32
2019-02-24T23:37:43.058Z,48.32
2019-02-24T23:40:09.811Z,48.46
2019-02-24T23:42:36.889Z,48.04
2019-02-24T23:45:10.301Z,48.04
2019-02-24T23:47:35.185Z,48.24
2019-02-24T23:50:02.004Z,48.17
2019-02-24T23:52:28.764Z,48.28
2019-02-24T23:54:55.521Z,48.46
2019-02-24T23:57:22.261Z,48.68
2019-02-24T23:59:49.331Z,48.65
